sensor_id;sensor_type;location;lat;lon;timestamp;pressure;altitude;pressure_sealevel;temperature;humidity
72096;BME280;59968;51.084;16.748;2023-07-08T00:00:54;100790.48;;;15.71;65.88
72096;BME280;59968;51.084;16.748;2023-07-08T00:03:43;100789.77;;;15.69;66.11
72096;BME280;59968;51.084;16.748;2023-07-08T00:06:22;100784.05;;;15.68;66.46
72096;BME280;59968;51.084;16.748;2023-07-08T00:08:51;100780.13;;;15.68;66.53
72096;BME280;59968;51.084;16.748;2023-07-08T00:11:19;100780.56;;;15.67;66.88
72096;BME280;59968;51.084;16.748;2023-07-08T00:13:48;100781.70;;;15.65;67.22
72096;BME280;59968;51.084;16.748;2023-07-08T00:16:18;100786.38;;;15.64;67.18
72096;BME280;59968;51.084;16.748;2023-07-08T00:18:47;100785.02;;;15.60;66.81
72096;BME280;59968;51.084;16.748;2023-07-08T00:21:20;100789.06;;;15.57;66.74
72096;BME280;59968;51.084;16.748;2023-07-08T00:23:49;100787.20;;;15.54;66.64
72096;BME280;59968;51.084;16.748;2023-07-08T00:26:22;100790.74;;;15.51;66.64
72096;BME280;59968;51.084;16.748;2023-07-08T00:28:52;100791.45;;;15.47;66.79
72096;BME280;59968;51.084;16.748;2023-07-08T00:31:22;100790.13;;;15.44;67.01
72096;BME280;59968;51.084;16.748;2023-07-08T00:33:55;100785.02;;;15.39;67.14
72096;BME280;59968;51.084;16.748;2023-07-08T00:36:28;100783.59;;;15.36;67.24
72096;BME280;59968;51.084;16.748;2023-07-08T00:38:57;100777.01;;;15.33;67.17
72096;BME280;59968;51.084;16.748;2023-07-08T00:43:58;100776.39;;;15.30;67.44
72096;BME280;59968;51.084;16.748;2023-07-08T00:51:39;100776.08;;;15.25;67.81
72096;BME280;59968;51.084;16.748;2023-07-08T00:54:18;100783.01;;;15.21;68.20
72096;BME280;59968;51.084;16.748;2023-07-08T00:56:54;100781.45;;;15.18;68.65
72096;BME280;59968;51.084;16.748;2023-07-08T00:59:31;100781.59;;;15.15;68.80
72096;BME280;59968;51.084;16.748;2023-07-08T01:02:04;100778.43;;;15.13;69.09
72096;BME280;59968;51.084;16.748;2023-07-08T01:04:45;100777.39;;;15.08;69.44
72096;BME280;59968;51.084;16.748;2023-07-08T01:07:17;100778.21;;;15.04;68.73
72096;BME280;59968;51.084;16.748;2023-07-08T01:10:00;100778.35;;;14.99;68.76
72096;BME280;59968;51.084;16.748;2023-07-08T01:12:34;100774.38;;;14.95;68.59
72096;BME280;59968;51.084;16.748;2023-07-08T01:15:06;100773.39;;;14.92;68.86
72096;BME280;59968;51.084;16.748;2023-07-08T01:17:35;100774.36;;;14.88;68.91
72096;BME280;59968;51.084;16.748;2023-07-08T01:20:05;100766.98;;;14.84;69.15
72096;BME280;59968;51.084;16.748;2023-07-08T01:22:35;100767.75;;;14.82;69.14
72096;BME280;59968;51.084;16.748;2023-07-08T01:25:05;100761.70;;;14.78;69.41
72096;BME280;59968;51.084;16.748;2023-07-08T01:27:36;100761.45;;;14.74;69.31
72096;BME280;59968;51.084;16.748;2023-07-08T01:30:07;100764.07;;;14.73;69.36
72096;BME280;59968;51.084;16.748;2023-07-08T01:32:38;100764.73;;;14.71;69.32
72096;BME280;59968;51.084;16.748;2023-07-08T01:35:09;100764.45;;;14.68;69.03
72096;BME280;59968;51.084;16.748;2023-07-08T01:37:43;100763.33;;;14.64;69.34
72096;BME280;59968;51.084;16.748;2023-07-08T01:42:57;100758.73;;;14.60;69.92
72096;BME280;59968;51.084;16.748;2023-07-08T01:45:28;100754.75;;;14.58;70.05
72096;BME280;59968;51.084;16.748;2023-07-08T01:48:03;100751.55;;;14.55;70.10
72096;BME280;59968;51.084;16.748;2023-07-08T01:50:37;100752.19;;;14.53;70.07
72096;BME280;59968;51.084;16.748;2023-07-08T01:53:19;100751.19;;;14.46;69.86
72096;BME280;59968;51.084;16.748;2023-07-08T01:55:48;100749.83;;;14.42;70.15
72096;BME280;59968;51.084;16.748;2023-07-08T01:58:16;100752.16;;;14.39;70.83
72096;BME280;59968;51.084;16.748;2023-07-08T02:00:47;100755.39;;;14.37;70.89
72096;BME280;59968;51.084;16.748;2023-07-08T02:03:17;100756.15;;;14.34;70.89
72096;BME280;59968;51.084;16.748;2023-07-08T02:05:48;100755.25;;;14.31;71.06
72096;BME280;59968;51.084;16.748;2023-07-08T02:08:17;100754.52;;;14.27;70.82
72096;BME280;59968;51.084;16.748;2023-07-08T02:10:52;100755.43;;;14.24;70.48
72096;BME280;59968;51.084;16.748;2023-07-08T02:13:21;100757.29;;;14.20;70.18
72096;BME280;59968;51.084;16.748;2023-07-08T02:15:50;100763.03;;;14.17;70.24
72096;BME280;59968;51.084;16.748;2023-07-08T02:18:20;100758.05;;;14.11;70.74
72096;BME280;59968;51.084;16.748;2023-07-08T02:20:48;100760.21;;;14.09;71.04
72096;BME280;59968;51.084;16.748;2023-07-08T02:23:18;100759.41;;;14.05;71.32
72096;BME280;59968;51.084;16.748;2023-07-08T02:25:53;100759.13;;;14.03;71.15
72096;BME280;59968;51.084;16.748;2023-07-08T02:28:23;100762.23;;;14.01;71.60
72096;BME280;59968;51.084;16.748;2023-07-08T02:30:51;100761.50;;;13.97;71.74
72096;BME280;59968;51.084;16.748;2023-07-08T02:33:20;100764.30;;;13.97;71.80
72096;BME280;59968;51.084;16.748;2023-07-08T02:35:49;100762.61;;;13.95;71.86
72096;BME280;59968;51.084;16.748;2023-07-08T02:38:17;100766.73;;;13.94;71.84
72096;BME280;59968;51.084;16.748;2023-07-08T02:40:47;100765.02;;;13.93;71.86
72096;BME280;59968;51.084;16.748;2023-07-08T02:43:15;100770.91;;;13.92;71.92
72096;BME280;59968;51.084;16.748;2023-07-08T02:45:44;100770.07;;;13.90;72.41
72096;BME280;59968;51.084;16.748;2023-07-08T02:48:12;100768.63;;;13.89;72.82
72096;BME280;59968;51.084;16.748;2023-07-08T02:50:40;100770.27;;;13.89;73.04
72096;BME280;59968;51.084;16.748;2023-07-08T02:53:09;100769.27;;;13.87;73.03
72096;BME280;59968;51.084;16.748;2023-07-08T02:55:41;100766.61;;;13.85;73.04
72096;BME280;59968;51.084;16.748;2023-07-08T02:58:10;100765.48;;;13.84;72.45
72096;BME280;59968;51.084;16.748;2023-07-08T03:00:38;100765.02;;;13.83;72.48
72096;BME280;59968;51.084;16.748;2023-07-08T03:03:07;100768.42;;;13.82;72.44
72096;BME280;59968;51.084;16.748;2023-07-08T03:05:36;100768.73;;;13.82;72.15
72096;BME280;59968;51.084;16.748;2023-07-08T03:08:05;100770.05;;;13.81;72.11
72096;BME280;59968;51.084;16.748;2023-07-08T03:10:34;100768.55;;;13.81;72.28
72096;BME280;59968;51.084;16.748;2023-07-08T03:13:02;100772.54;;;13.79;72.02
72096;BME280;59968;51.084;16.748;2023-07-08T03:15:31;100772.66;;;13.77;71.93
72096;BME280;59968;51.084;16.748;2023-07-08T03:18:00;100772.56;;;13.74;72.09
72096;BME280;59968;51.084;16.748;2023-07-08T03:20:29;100771.17;;;13.74;72.32
72096;BME280;59968;51.084;16.748;2023-07-08T03:23:00;100772.30;;;13.76;73.01
72096;BME280;59968;51.084;16.748;2023-07-08T03:25:29;100774.31;;;13.80;72.76
72096;BME280;59968;51.084;16.748;2023-07-08T03:27:57;100772.88;;;13.85;72.56
72096;BME280;59968;51.084;16.748;2023-07-08T03:30:27;100773.56;;;13.89;72.44
72096;BME280;59968;51.084;16.748;2023-07-08T03:32:56;100776.80;;;13.92;72.26
72096;BME280;59968;51.084;16.748;2023-07-08T03:35:25;100777.86;;;13.96;72.30
72096;BME280;59968;51.084;16.748;2023-07-08T03:37:53;100772.81;;;14.01;72.28
72096;BME280;59968;51.084;16.748;2023-07-08T03:40:22;100770.80;;;14.09;72.19
72096;BME280;59968;51.084;16.748;2023-07-08T03:42:50;100773.46;;;14.20;72.21
72096;BME280;59968;51.084;16.748;2023-07-08T03:45:18;100768.14;;;14.30;72.18
72096;BME280;59968;51.084;16.748;2023-07-08T03:47:47;100766.93;;;14.39;72.09
72096;BME280;59968;51.084;16.748;2023-07-08T03:50:19;100768.20;;;14.52;72.16
72096;BME280;59968;51.084;16.748;2023-07-08T03:52:49;100765.10;;;14.64;72.15
72096;BME280;59968;51.084;16.748;2023-07-08T03:55:19;100766.99;;;14.77;72.06
72096;BME280;59968;51.084;16.748;2023-07-08T03:57:47;100768.70;;;14.90;72.12
72096;BME280;59968;51.084;16.748;2023-07-08T04:00:16;100767.64;;;15.05;71.83
72096;BME280;59968;51.084;16.748;2023-07-08T04:02:47;100766.85;;;15.19;72.08
72096;BME280;59968;51.084;16.748;2023-07-08T04:05:22;100766.42;;;15.35;72.18
72096;BME280;59968;51.084;16.748;2023-07-08T04:07:52;100766.08;;;15.56;72.20
72096;BME280;59968;51.084;16.748;2023-07-08T04:10:21;100762.27;;;15.78;72.13
72096;BME280;59968;51.084;16.748;2023-07-08T04:12:50;100765.58;;;15.98;71.96
72096;BME280;59968;51.084;16.748;2023-07-08T04:15:18;100766.70;;;16.16;71.74
72096;BME280;59968;51.084;16.748;2023-07-08T04:17:48;100763.08;;;16.34;71.45
72096;BME280;59968;51.084;16.748;2023-07-08T04:20:18;100762.52;;;16.53;71.26
72096;BME280;59968;51.084;16.748;2023-07-08T04:22:47;100759.66;;;16.70;70.99
72096;BME280;59968;51.084;16.748;2023-07-08T04:25:18;100755.59;;;16.91;70.69
72096;BME280;59968;51.084;16.748;2023-07-08T04:27:47;100759.81;;;17.13;70.35
72096;BME280;59968;51.084;16.748;2023-07-08T04:30:25;100753.75;;;17.32;70.06
72096;BME280;59968;51.084;16.748;2023-07-08T04:32:54;100757.03;;;17.57;69.47
72096;BME280;59968;51.084;16.748;2023-07-08T04:35:24;100755.48;;;17.78;68.93
72096;BME280;59968;51.084;16.748;2023-07-08T04:37:53;100751.51;;;17.97;68.25
72096;BME280;59968;51.084;16.748;2023-07-08T04:40:22;100759.05;;;18.17;67.91
72096;BME280;59968;51.084;16.748;2023-07-08T04:42:51;100756.35;;;18.36;67.23
72096;BME280;59968;51.084;16.748;2023-07-08T04:45:21;100758.05;;;18.57;66.85
72096;BME280;59968;51.084;16.748;2023-07-08T04:47:49;100753.50;;;18.70;66.51
72096;BME280;59968;51.084;16.748;2023-07-08T04:50:21;100752.73;;;18.86;66.08
72096;BME280;59968;51.084;16.748;2023-07-08T04:52:50;100752.96;;;19.03;65.90
72096;BME280;59968;51.084;16.748;2023-07-08T04:55:18;100753.23;;;19.20;65.42
72096;BME280;59968;51.084;16.748;2023-07-08T04:57:47;100752.81;;;19.41;65.03
72096;BME280;59968;51.084;16.748;2023-07-08T05:00:17;100751.73;;;19.63;64.77
72096;BME280;59968;51.084;16.748;2023-07-08T05:02:48;100751.44;;;19.82;64.47
72096;BME280;59968;51.084;16.748;2023-07-08T05:05:16;100748.32;;;20.01;64.27
72096;BME280;59968;51.084;16.748;2023-07-08T05:07:45;100752.17;;;20.19;64.17
72096;BME280;59968;51.084;16.748;2023-07-08T05:10:14;100755.06;;;20.34;63.96
72096;BME280;59968;51.084;16.748;2023-07-08T05:12:43;100752.89;;;20.47;63.54
72096;BME280;59968;51.084;16.748;2023-07-08T05:15:13;100751.47;;;20.59;63.53
72096;BME280;59968;51.084;16.748;2023-07-08T05:17:42;100752.14;;;20.72;63.08
72096;BME280;59968;51.084;16.748;2023-07-08T05:20:13;100752.61;;;20.83;62.65
72096;BME280;59968;51.084;16.748;2023-07-08T05:22:42;100753.58;;;20.97;61.67
72096;BME280;59968;51.084;16.748;2023-07-08T05:25:12;100756.98;;;21.15;61.21
72096;BME280;59968;51.084;16.748;2023-07-08T05:27:41;100753.59;;;21.34;60.61
72096;BME280;59968;51.084;16.748;2023-07-08T05:30:15;100752.59;;;21.50;60.04
72096;BME280;59968;51.084;16.748;2023-07-08T05:32:45;100752.14;;;21.65;59.93
72096;BME280;59968;51.084;16.748;2023-07-08T05:35:14;100753.29;;;21.81;59.59
72096;BME280;59968;51.084;16.748;2023-07-08T05:37:43;100756.44;;;21.95;59.20
72096;BME280;59968;51.084;16.748;2023-07-08T05:40:16;100755.09;;;22.11;58.88
72096;BME280;59968;51.084;16.748;2023-07-08T05:42:44;100758.08;;;22.30;58.42
72096;BME280;59968;51.084;16.748;2023-07-08T05:45:13;100760.92;;;22.45;58.38
72096;BME280;59968;51.084;16.748;2023-07-08T05:47:43;100764.21;;;22.57;57.95
72096;BME280;59968;51.084;16.748;2023-07-08T05:50:12;100765.36;;;22.70;57.09
72096;BME280;59968;51.084;16.748;2023-07-08T05:52:41;100764.05;;;22.83;56.91
72096;BME280;59968;51.084;16.748;2023-07-08T05:55:10;100759.66;;;22.96;56.82
72096;BME280;59968;51.084;16.748;2023-07-08T05:57:38;100759.00;;;23.07;56.52
72096;BME280;59968;51.084;16.748;2023-07-08T06:00:08;100759.25;;;23.22;55.98
72096;BME280;59968;51.084;16.748;2023-07-08T06:02:39;100756.66;;;23.39;55.52
72096;BME280;59968;51.084;16.748;2023-07-08T06:05:08;100755.33;;;23.57;54.33
72096;BME280;59968;51.084;16.748;2023-07-08T06:07:37;100757.73;;;23.76;53.78
72096;BME280;59968;51.084;16.748;2023-07-08T06:10:06;100755.44;;;23.96;52.85
72096;BME280;59968;51.084;16.748;2023-07-08T06:12:35;100753.71;;;24.13;52.72
72096;BME280;59968;51.084;16.748;2023-07-08T06:15:04;100741.66;;;24.21;52.92
72096;BME280;59968;51.084;16.748;2023-07-08T06:17:33;100753.35;;;24.40;52.69
72096;BME280;59968;51.084;16.748;2023-07-08T06:20:01;100755.44;;;24.52;51.82
72096;BME280;59968;51.084;16.748;2023-07-08T06:22:30;100755.92;;;24.64;51.40
72096;BME280;59968;51.084;16.748;2023-07-08T06:25:14;100755.53;;;24.78;50.81
72096;BME280;59968;51.084;16.748;2023-07-08T06:27:43;100757.38;;;24.92;50.67
72096;BME280;59968;51.084;16.748;2023-07-08T06:30:11;100759.86;;;25.07;49.98
72096;BME280;59968;51.084;16.748;2023-07-08T06:32:40;100762.02;;;25.22;49.58
72096;BME280;59968;51.084;16.748;2023-07-08T06:35:08;100759.27;;;25.36;49.92
72096;BME280;59968;51.084;16.748;2023-07-08T06:37:38;100755.27;;;25.51;49.27
72096;BME280;59968;51.084;16.748;2023-07-08T06:40:09;100750.48;;;25.66;49.11
72096;BME280;59968;51.084;16.748;2023-07-08T06:42:38;100745.80;;;25.82;48.40
72096;BME280;59968;51.084;16.748;2023-07-08T06:45:17;100746.14;;;25.96;48.21
72096;BME280;59968;51.084;16.748;2023-07-08T06:47:47;100746.48;;;26.11;48.17
72096;BME280;59968;51.084;16.748;2023-07-08T06:50:16;100751.73;;;26.26;48.01
72096;BME280;59968;51.084;16.748;2023-07-08T06:52:45;100753.01;;;26.36;47.16
72096;BME280;59968;51.084;16.748;2023-07-08T06:55:13;100753.88;;;26.49;47.11
72096;BME280;59968;51.084;16.748;2023-07-08T06:57:42;100753.42;;;26.62;47.11
72096;BME280;59968;51.084;16.748;2023-07-08T07:00:12;100752.21;;;26.74;46.46
72096;BME280;59968;51.084;16.748;2023-07-08T07:02:41;100752.14;;;26.82;46.06
72096;BME280;59968;51.084;16.748;2023-07-08T07:05:10;100756.45;;;26.87;45.56
72096;BME280;59968;51.084;16.748;2023-07-08T07:07:38;100760.71;;;26.94;44.22
72096;BME280;59968;51.084;16.748;2023-07-08T07:10:07;100757.69;;;26.96;43.70
72096;BME280;59968;51.084;16.748;2023-07-08T07:12:36;100761.28;;;27.00;43.96
72096;BME280;59968;51.084;16.748;2023-07-08T07:15:05;100759.88;;;27.05;43.47
72096;BME280;59968;51.084;16.748;2023-07-08T07:17:35;100761.98;;;27.11;43.42
72096;BME280;59968;51.084;16.748;2023-07-08T07:20:05;100766.53;;;27.20;44.00
72096;BME280;59968;51.084;16.748;2023-07-08T07:22:34;100763.64;;;27.33;44.50
72096;BME280;59968;51.084;16.748;2023-07-08T07:25:04;100764.83;;;27.48;43.98
72096;BME280;59968;51.084;16.748;2023-07-08T07:27:33;100766.74;;;27.62;43.01
72096;BME280;59968;51.084;16.748;2023-07-08T07:30:03;100765.16;;;27.75;42.69
72096;BME280;59968;51.084;16.748;2023-07-08T07:32:38;100763.71;;;27.82;42.01
72096;BME280;59968;51.084;16.748;2023-07-08T07:35:11;100758.98;;;27.84;41.53
72096;BME280;59968;51.084;16.748;2023-07-08T07:37:42;100760.58;;;27.90;41.10
72096;BME280;59968;51.084;16.748;2023-07-08T07:40:13;100756.27;;;27.96;41.21
72096;BME280;59968;51.084;16.748;2023-07-08T07:42:47;100762.14;;;28.03;41.32
72096;BME280;59968;51.084;16.748;2023-07-08T07:45:16;100760.60;;;28.12;40.72
72096;BME280;59968;51.084;16.748;2023-07-08T07:47:49;100755.90;;;28.21;40.29
72096;BME280;59968;51.084;16.748;2023-07-08T07:50:17;100759.67;;;28.36;40.78
72096;BME280;59968;51.084;16.748;2023-07-08T07:52:46;100760.96;;;28.47;40.63
72096;BME280;59968;51.084;16.748;2023-07-08T07:55:15;100755.09;;;28.59;39.83
72096;BME280;59968;51.084;16.748;2023-07-08T07:57:43;100752.52;;;28.68;39.59
72096;BME280;59968;51.084;16.748;2023-07-08T08:00:14;100756.40;;;28.76;39.03
72096;BME280;59968;51.084;16.748;2023-07-08T08:02:46;100762.44;;;28.86;38.62
72096;BME280;59968;51.084;16.748;2023-07-08T08:05:15;100759.16;;;28.92;37.85
72096;BME280;59968;51.084;16.748;2023-07-08T08:07:44;100758.90;;;29.02;37.20
72096;BME280;59968;51.084;16.748;2023-07-08T08:10:13;100760.56;;;29.11;37.11
72096;BME280;59968;51.084;16.748;2023-07-08T08:12:41;100752.35;;;29.24;37.43
72096;BME280;59968;51.084;16.748;2023-07-08T08:15:22;100754.36;;;29.36;36.66
72096;BME280;59968;51.084;16.748;2023-07-08T08:17:51;100753.17;;;29.49;35.31
72096;BME280;59968;51.084;16.748;2023-07-08T08:20:23;100746.92;;;29.59;35.43
72096;BME280;59968;51.084;16.748;2023-07-08T08:22:54;100745.15;;;29.68;35.12
72096;BME280;59968;51.084;16.748;2023-07-08T08:25:23;100749.84;;;29.80;34.82
72096;BME280;59968;51.084;16.748;2023-07-08T08:27:52;100745.84;;;29.91;33.52
72096;BME280;59968;51.084;16.748;2023-07-08T08:30:21;100746.36;;;30.02;34.49
72096;BME280;59968;51.084;16.748;2023-07-08T08:32:50;100746.99;;;30.15;34.01
72096;BME280;59968;51.084;16.748;2023-07-08T08:35:19;100751.16;;;30.25;33.66
72096;BME280;59968;51.084;16.748;2023-07-08T08:37:47;100752.61;;;30.33;32.97
72096;BME280;59968;51.084;16.748;2023-07-08T08:40:18;100758.45;;;30.37;33.19
72096;BME280;59968;51.084;16.748;2023-07-08T08:45:26;100752.57;;;30.50;32.52
72096;BME280;59968;51.084;16.748;2023-07-08T08:48:01;100749.23;;;30.57;31.35
72096;BME280;59968;51.084;16.748;2023-07-08T08:50:41;100749.38;;;30.70;30.52
72096;BME280;59968;51.084;16.748;2023-07-08T08:53:13;100747.61;;;30.83;30.12
72096;BME280;59968;51.084;16.748;2023-07-08T08:55:47;100746.77;;;30.94;29.89
72096;BME280;59968;51.084;16.748;2023-07-08T08:58:30;100746.20;;;31.04;30.13
72096;BME280;59968;51.084;16.748;2023-07-08T09:01:08;100749.17;;;31.12;29.95
72096;BME280;59968;51.084;16.748;2023-07-08T09:03:49;100745.37;;;31.19;29.11
72096;BME280;59968;51.084;16.748;2023-07-08T09:06:24;100740.98;;;31.27;28.92
72096;BME280;59968;51.084;16.748;2023-07-08T09:08:54;100736.00;;;31.30;28.20
72096;BME280;59968;51.084;16.748;2023-07-08T09:13:56;100732.36;;;31.33;28.84
72096;BME280;59968;51.084;16.748;2023-07-08T09:16:56;100730.85;;;31.35;28.34
72096;BME280;59968;51.084;16.748;2023-07-08T09:19:32;100729.35;;;31.34;29.10
72096;BME280;59968;51.084;16.748;2023-07-08T09:22:14;100729.32;;;31.33;29.83
72096;BME280;59968;51.084;16.748;2023-07-08T09:24:48;100729.67;;;31.32;30.06
72096;BME280;59968;51.084;16.748;2023-07-08T09:27:22;100727.14;;;31.31;29.63
72096;BME280;59968;51.084;16.748;2023-07-08T09:29:53;100724.05;;;31.32;29.54
72096;BME280;59968;51.084;16.748;2023-07-08T09:32:35;100720.55;;;31.39;29.57
72096;BME280;59968;51.084;16.748;2023-07-08T09:35:59;100716.88;;;31.48;29.09
72096;BME280;59968;51.084;16.748;2023-07-08T09:38:24;100716.70;;;31.56;28.27
72096;BME280;59968;51.084;16.748;2023-07-08T09:41:02;100715.61;;;31.63;28.94
72096;BME280;59968;51.084;16.748;2023-07-08T09:43:38;100710.30;;;31.66;28.08
72096;BME280;59968;51.084;16.748;2023-07-08T09:46:15;100704.59;;;31.59;27.90
72096;BME280;59968;51.084;16.748;2023-07-08T09:48:58;100704.55;;;31.55;28.28
72096;BME280;59968;51.084;16.748;2023-07-08T09:51:34;100705.16;;;31.58;28.22
72096;BME280;59968;51.084;16.748;2023-07-08T09:54:15;100704.29;;;31.62;28.24
72096;BME280;59968;51.084;16.748;2023-07-08T09:57:04;100705.39;;;31.64;27.62
72096;BME280;59968;51.084;16.748;2023-07-08T10:00:12;100708.83;;;31.64;27.78
72096;BME280;59968;51.084;16.748;2023-07-08T10:02:57;100706.19;;;31.63;27.52
72096;BME280;59968;51.084;16.748;2023-07-08T10:05:40;100703.44;;;31.63;27.67
72096;BME280;59968;51.084;16.748;2023-07-08T10:08:20;100702.27;;;31.64;27.75
72096;BME280;59968;51.084;16.748;2023-07-08T10:11:25;100703.75;;;31.67;27.26
72096;BME280;59968;51.084;16.748;2023-07-08T10:14:04;100699.66;;;31.70;27.24
72096;BME280;59968;51.084;16.748;2023-07-08T10:16:41;100696.35;;;31.71;27.24
72096;BME280;59968;51.084;16.748;2023-07-08T10:19:16;100697.42;;;31.71;26.65
72096;BME280;59968;51.084;16.748;2023-07-08T10:24:47;100699.54;;;31.71;26.13
72096;BME280;59968;51.084;16.748;2023-07-08T10:27:47;100695.43;;;31.73;26.31
72096;BME280;59968;51.084;16.748;2023-07-08T10:30:34;100694.34;;;31.78;26.93
72096;BME280;59968;51.084;16.748;2023-07-08T10:38:32;100692.95;;;31.89;26.22
72096;BME280;59968;51.084;16.748;2023-07-08T10:41:19;100689.34;;;31.80;26.61
72096;BME280;59968;51.084;16.748;2023-07-08T10:44:11;100692.35;;;31.67;26.32
72096;BME280;59968;51.084;16.748;2023-07-08T10:49:35;100689.25;;;31.52;27.33
72096;BME280;59968;51.084;16.748;2023-07-08T10:52:29;100685.98;;;31.58;26.53
72096;BME280;59968;51.084;16.748;2023-07-08T10:58:23;100680.84;;;31.67;26.55
72096;BME280;59968;51.084;16.748;2023-07-08T11:04:03;100678.13;;;31.75;26.83
72096;BME280;59968;51.084;16.748;2023-07-08T11:06:56;100671.40;;;31.79;26.33
72096;BME280;59968;51.084;16.748;2023-07-08T11:09:42;100663.04;;;31.86;27.13
72096;BME280;59968;51.084;16.748;2023-07-08T11:12:40;100659.82;;;31.95;26.77
72096;BME280;59968;51.084;16.748;2023-07-08T11:16:05;100658.98;;;32.03;26.79
72096;BME280;59968;51.084;16.748;2023-07-08T11:18:30;100658.61;;;32.08;26.74
72096;BME280;59968;51.084;16.748;2023-07-08T11:21:10;100658.39;;;32.08;26.67
72096;BME280;59968;51.084;16.748;2023-07-08T11:23:46;100654.83;;;32.08;26.80
72096;BME280;59968;51.084;16.748;2023-07-08T11:26:23;100650.09;;;32.07;27.06
72096;BME280;59968;51.084;16.748;2023-07-08T11:28:54;100654.19;;;32.04;26.26
72096;BME280;59968;51.084;16.748;2023-07-08T11:31:29;100657.67;;;31.98;26.39
72096;BME280;59968;51.084;16.748;2023-07-08T11:34:00;100656.54;;;32.00;26.85
72096;BME280;59968;51.084;16.748;2023-07-08T11:36:31;100652.74;;;32.07;25.97
72096;BME280;59968;51.084;16.748;2023-07-08T11:39:00;100649.45;;;32.14;26.09
72096;BME280;59968;51.084;16.748;2023-07-08T11:41:31;100645.81;;;32.23;26.11
72096;BME280;59968;51.084;16.748;2023-07-08T11:44:04;100642.44;;;32.27;26.35
72096;BME280;59968;51.084;16.748;2023-07-08T11:46:34;100637.94;;;32.30;25.69
72096;BME280;59968;51.084;16.748;2023-07-08T11:49:12;100637.89;;;32.32;25.84
72096;BME280;59968;51.084;16.748;2023-07-08T11:51:44;100639.78;;;32.32;26.12
72096;BME280;59968;51.084;16.748;2023-07-08T11:54:29;100637.82;;;32.33;26.36
72096;BME280;59968;51.084;16.748;2023-07-08T11:57:07;100634.48;;;32.36;26.68
72096;BME280;59968;51.084;16.748;2023-07-08T11:59:40;100630.22;;;32.36;26.16
72096;BME280;59968;51.084;16.748;2023-07-08T12:05:04;100627.02;;;32.29;25.83
72096;BME280;59968;51.084;16.748;2023-07-08T12:07:45;100623.63;;;32.25;25.83
72096;BME280;59968;51.084;16.748;2023-07-08T12:10:22;100624.49;;;32.23;25.75
72096;BME280;59968;51.084;16.748;2023-07-08T12:12:54;100621.95;;;32.21;26.22
72096;BME280;59968;51.084;16.748;2023-07-08T12:15:31;100617.23;;;32.20;25.52
72096;BME280;59968;51.084;16.748;2023-07-08T12:20:42;100617.91;;;32.23;25.54
72096;BME280;59968;51.084;16.748;2023-07-08T12:23:23;100619.03;;;32.29;25.27
72096;BME280;59968;51.084;16.748;2023-07-08T12:25:52;100615.03;;;32.32;25.37
72096;BME280;59968;51.084;16.748;2023-07-08T12:28:22;100616.36;;;32.35;24.85
72096;BME280;59968;51.084;16.748;2023-07-08T12:30:52;100613.26;;;32.30;24.66
72096;BME280;59968;51.084;16.748;2023-07-08T12:33:30;100611.09;;;32.17;25.30
72096;BME280;59968;51.084;16.748;2023-07-08T12:36:01;100607.59;;;32.10;25.39
72096;BME280;59968;51.084;16.748;2023-07-08T12:38:32;100601.27;;;32.04;25.40
72096;BME280;59968;51.084;16.748;2023-07-08T12:41:09;100602.16;;;32.05;26.39
72096;BME280;59968;51.084;16.748;2023-07-08T12:43:38;100598.84;;;32.04;25.45
72096;BME280;59968;51.084;16.748;2023-07-08T12:46:10;100600.40;;;32.03;26.90
72096;BME280;59968;51.084;16.748;2023-07-08T12:48:40;100598.88;;;32.05;26.97
72096;BME280;59968;51.084;16.748;2023-07-08T12:51:15;100597.96;;;32.04;25.72
72096;BME280;59968;51.084;16.748;2023-07-08T12:53:44;100597.41;;;31.99;25.02
72096;BME280;59968;51.084;16.748;2023-07-08T12:56:13;100595.89;;;31.92;25.55
72096;BME280;59968;51.084;16.748;2023-07-08T12:58:46;100592.39;;;31.87;25.42
72096;BME280;59968;51.084;16.748;2023-07-08T13:01:24;100589.34;;;31.83;25.23
72096;BME280;59968;51.084;16.748;2023-07-08T13:03:59;100583.39;;;31.82;25.25
72096;BME280;59968;51.084;16.748;2023-07-08T13:06:31;100585.59;;;31.87;25.15
72096;BME280;59968;51.084;16.748;2023-07-08T13:09:07;100580.99;;;31.91;24.79
72096;BME280;59968;51.084;16.748;2023-07-08T13:11:37;100577.75;;;31.85;24.54
72096;BME280;59968;51.084;16.748;2023-07-08T13:14:06;100579.36;;;31.79;25.46
72096;BME280;59968;51.084;16.748;2023-07-08T13:16:35;100576.73;;;31.80;26.12
72096;BME280;59968;51.084;16.748;2023-07-08T13:19:05;100576.08;;;31.85;26.19
72096;BME280;59968;51.084;16.748;2023-07-08T13:21:34;100572.29;;;31.90;25.59
72096;BME280;59968;51.084;16.748;2023-07-08T13:24:09;100566.70;;;31.98;26.22
72096;BME280;59968;51.084;16.748;2023-07-08T13:26:40;100561.39;;;32.05;25.39
72096;BME280;59968;51.084;16.748;2023-07-08T13:29:14;100563.29;;;32.17;25.35
72096;BME280;59968;51.084;16.748;2023-07-08T13:31:48;100561.12;;;32.24;24.63
72096;BME280;59968;51.084;16.748;2023-07-08T13:34:20;100553.78;;;32.27;24.69
72096;BME280;59968;51.084;16.748;2023-07-08T13:36:52;100551.23;;;32.28;24.83
72096;BME280;59968;51.084;16.748;2023-07-08T13:41:56;100548.41;;;32.35;24.45
72096;BME280;59968;51.084;16.748;2023-07-08T13:44:26;100546.73;;;32.27;23.75
72096;BME280;59968;51.084;16.748;2023-07-08T13:46:58;100544.33;;;32.20;24.28
72096;BME280;59968;51.084;16.748;2023-07-08T13:49:29;100542.96;;;32.24;25.03